Weather History for Baraboo, WI

Change the Weather History Date:

Wednesday, April 9, 2014

  Actual Average Record
Temperature  
Mean Temperature 44 °F -  
Max Temperature 62 °F 52 °F 76 °F (1987)
Min Temperature 27 °F 29 °F 11 °F (1982)
Degree Days  
Heating Degree Days 20    
Moisture  
Dew Point 26 °F    
Average Humidity 48    
Maximum Humidity 89    
Minimum Humidity 25    
Precipitation  
Precipitation 0.00 in - - ()
Sea Level Pressure  
Sea Level Pressure 29.86 in    
Wind  
Wind Speed 7 mph (SW)    
Max Wind Speed 23 mph    
Max Gust Speed 28 mph    
Visibility 10 miles    
Events      
Averages and records for this station are not official NWS values.
T = Trace of Precipitation, MM = Missing Value Source: NWS Daily Summary

Daily Weather History Graph

Daily Weather History Graph

Search for Another Location

Airport:

Trip Planner

Search our weather history database for the weather conditions in past years. The results will help you decide how hot, cold, wet, or windy it might be!

Date:

Astronomy

Apr. 09, 2014 Rise Set
Actual Time 6:26 AM CDT 7:35 PM CDT
Civil Twilight 5:57 AM CDT 8:04 PM CDT
Nautical Twilight 5:22 AM CDT 8:40 PM CDT
Astronomical Twilight 4:45 AM CDT 9:17 PM CDT
Moon 2:14 PM CDT (4/9) 3:25 AM CDT (4/9)
Length of Visible Light 14h 07m
Length of Day
13h 08m
Waxing Gibbous, 72% of the Moon is Illuminated
Apr 9
Waxing Gibbous
Apr 15
Full
Apr 22
Last Quarter
Apr 29
New
May 6
First Quarter

Hourly Weather History & Observations

Time (CDT) Temp. Windchill Dew Point Humidity Pressure Visibility Wind Dir Wind Speed Gust Speed Precip Events Conditions
12:15 AM 41.0 °F 39.0 °F 25.7 °F 55% 29.96 in 10.0 mi NW 3.5 mph - N/A   Clear
12:35 AM 40.1 °F 38.0 °F 25.7 °F 56% 29.96 in 10.0 mi NW 3.5 mph - N/A   Clear
12:55 AM 39.4 °F 37.2 °F 25.7 °F 58% 29.96 in 10.0 mi NW 3.5 mph - N/A   Clear
1:15 AM 38.1 °F 35.7 °F 25.7 °F 61% 29.96 in 10.0 mi NW 3.5 mph - N/A   Clear
1:35 AM 35.1 °F - 25.5 °F 68% 29.96 in 10.0 mi Calm Calm - N/A   Clear
1:55 AM 34.5 °F - 25.7 °F 70% 29.96 in 10.0 mi Calm Calm - N/A   Clear
2:15 AM 33.8 °F 29.6 °F 25.7 °F 72% 29.95 in 10.0 mi West 4.6 mph - N/A   Clear
2:35 AM 34.0 °F - 26.2 °F 73% 29.95 in 10.0 mi Calm Calm - N/A   Clear
2:55 AM 34.7 °F - 25.5 °F 69% 29.95 in 10.0 mi Calm Calm - N/A   Clear
3:15 AM 32.5 °F - 25.9 °F 76% 29.95 in 10.0 mi Calm Calm - N/A   Clear
3:35 AM 32.2 °F - 26.4 °F 79% 29.94 in 10.0 mi Calm Calm - N/A   Clear
3:55 AM 33.1 °F 28.7 °F 26.2 °F 76% 29.95 in 10.0 mi South 4.6 mph - N/A   Clear
4:15 AM 31.5 °F - 25.7 °F 79% 29.95 in 10.0 mi Calm Calm - N/A   Clear
4:35 AM 31.1 °F - 26.1 °F 82% 29.95 in 10.0 mi Calm Calm - N/A   Clear
4:55 AM 30.9 °F - 25.7 °F 81% 29.95 in 10.0 mi Calm Calm - N/A   Clear
5:15 AM 29.8 °F - 25.7 °F 85% 29.96 in 10.0 mi Calm Calm - N/A   Clear
5:35 AM 29.3 °F - 25.0 °F 84% 29.96 in 10.0 mi Calm Calm - N/A   Clear
5:55 AM 28.4 °F - 24.6 °F 86% 29.97 in 10.0 mi Calm Calm - N/A   Clear
6:15 AM 28.4 °F - 25.2 °F 88% 29.98 in 10.0 mi Calm Calm - N/A   Clear
6:35 AM 27.5 °F - 24.4 °F 88% 29.98 in 10.0 mi Calm Calm - N/A   Clear
6:55 AM 28.9 °F - 26.1 °F 89% 29.98 in 10.0 mi Calm Calm - N/A   Clear
7:15 AM 29.8 °F - 26.4 °F 87% 29.98 in 10.0 mi Calm Calm - N/A   Clear
7:35 AM 32.0 °F - 29.1 °F 89% 29.98 in 10.0 mi Calm Calm - N/A   Clear
7:55 AM 36.7 °F 32.9 °F 30.7 °F 79% 29.97 in 10.0 mi SW 4.6 mph - N/A   Clear
8:15 AM 38.5 °F 36.1 °F 29.5 °F 70% 29.98 in 10.0 mi SW 3.5 mph - N/A   Clear
8:35 AM 40.5 °F 38.4 °F 29.1 °F 64% 29.98 in 10.0 mi SW 3.5 mph - N/A   Clear
8:55 AM 43.0 °F 40.3 °F 29.3 °F 59% 29.97 in 10.0 mi SSW 4.6 mph - N/A   Clear
9:15 AM 44.6 °F 40.2 °F 27.7 °F 52% 29.97 in 10.0 mi SW 8.1 mph - N/A   Clear
9:35 AM 46.0 °F 41.0 °F 27.0 °F 47% 29.97 in 10.0 mi SW 10.4 mph - N/A   Clear
9:55 AM 47.5 °F - 25.9 °F 43% 29.97 in 10.0 mi SW 10.4 mph - N/A   Clear
10:15 AM 48.6 °F - 24.8 °F 39% 29.97 in 10.0 mi West 11.5 mph - N/A   Clear
10:35 AM 50.2 °F - 25.0 °F 37% 29.98 in 10.0 mi West 9.2 mph - N/A   Clear
10:55 AM 51.1 °F - 25.2 °F 36% 29.97 in 10.0 mi SW 13.8 mph - N/A   Clear
11:15 AM 51.1 °F - 24.8 °F 36% 29.96 in 10.0 mi SSW 12.7 mph 18.4 mph N/A   Clear
11:35 AM 51.8 °F - 24.6 °F 35% 29.95 in 10.0 mi SW 11.5 mph 17.3 mph N/A   Clear
11:55 AM 52.5 °F - 24.3 °F 33% 29.94 in 10.0 mi SW 13.8 mph 19.6 mph N/A   Clear
12:15 PM 53.6 °F - 23.5 °F 31% 29.92 in 10.0 mi SSW 12.7 mph 21.9 mph N/A   Clear
12:35 PM 55.2 °F - 24.3 °F 30% 29.91 in 10.0 mi SW 13.8 mph - N/A   Clear
12:55 PM 55.8 °F - 23.5 °F 29% 29.89 in 10.0 mi WSW 11.5 mph 17.3 mph N/A   Clear
1:15 PM 57.0 °F - 24.1 °F 28% 29.88 in 10.0 mi WSW 13.8 mph - N/A   Clear
1:35 PM 57.7 °F - 24.1 °F 27% 29.87 in 10.0 mi SW 12.7 mph 19.6 mph N/A   Clear
1:55 PM 58.8 °F - 25.0 °F 27% 29.86 in 10.0 mi SW 12.7 mph 20.7 mph N/A   Clear
2:15 PM 58.8 °F - 25.2 °F 28% 29.85 in 10.0 mi SSW 12.7 mph 17.3 mph N/A   Mostly Cloudy
2:35 PM 59.5 °F - 26.1 °F 28% 29.84 in 10.0 mi South 17.3 mph 20.7 mph N/A   Overcast
2:55 PM 59.7 °F - 25.7 °F 27% 29.82 in 10.0 mi SSW 16.1 mph 24.2 mph N/A   Mostly Cloudy
3:15 PM 60.1 °F - 24.3 °F 25% 29.80 in 10.0 mi South 18.4 mph 24.2 mph N/A   Overcast
3:35 PM 62.1 °F - 25.7 °F 25% 29.79 in 10.0 mi SSW 17.3 mph 21.9 mph N/A   Mostly Cloudy
3:55 PM 61.9 °F - 27.1 °F 27% 29.78 in 10.0 mi SSW 11.5 mph - N/A   Mostly Cloudy
4:15 PM 60.3 °F - 26.1 °F 27% 29.77 in 10.0 mi SSW 20.7 mph 25.3 mph N/A   Mostly Cloudy
4:35 PM 60.4 °F - 26.8 °F 28% 29.76 in 10.0 mi SSW 16.1 mph 21.9 mph N/A   Overcast
4:55 PM 61.2 °F - 26.8 °F 27% 29.76 in 10.0 mi SSW 15.0 mph - N/A   Overcast
5:15 PM 61.7 °F - 27.1 °F 27% 29.75 in 10.0 mi South 17.3 mph - N/A   Overcast
5:35 PM 61.7 °F - 27.5 °F 27% 29.76 in 10.0 mi SSW 20.7 mph 25.3 mph N/A   Scattered Clouds
5:55 PM 61.7 °F - 27.5 °F 27% 29.76 in 10.0 mi SW 17.3 mph 26.5 mph N/A   Clear
6:15 PM 61.3 °F - 27.7 °F 28% 29.76 in 10.0 mi SW 13.8 mph 21.9 mph N/A   Clear
6:35 PM 60.8 °F - 28.0 °F 29% 29.75 in 10.0 mi SW 17.3 mph 21.9 mph N/A   Clear
6:55 PM 59.9 °F - 27.3 °F 29% 29.75 in 10.0 mi SSW 11.5 mph 23.0 mph N/A   Clear
7:15 PM 58.8 °F - 27.1 °F 30% 29.74 in 10.0 mi SSW 12.7 mph - N/A   Clear
7:35 PM 58.3 °F - 27.1 °F 30% 29.74 in 10.0 mi SSW 12.7 mph - N/A   Clear
7:55 PM 56.5 °F - 27.7 °F 33% 29.73 in 10.0 mi SSW 9.2 mph - N/A   Clear
8:15 PM 56.1 °F - 27.7 °F 34% 29.73 in 10.0 mi South 11.5 mph - N/A   Clear
8:35 PM 56.3 °F - 27.5 °F 33% 29.72 in 10.0 mi SSW 15.0 mph - N/A   Clear
8:55 PM 56.1 °F - 27.3 °F 33% 29.72 in 10.0 mi SSW 17.3 mph - N/A   Clear
9:15 PM 56.3 °F - 27.1 °F 33% 29.71 in 10.0 mi SSW 18.4 mph - N/A   Clear
9:35 PM 56.1 °F - 27.3 °F 33% 29.71 in 10.0 mi SSW 19.6 mph 24.2 mph N/A   Clear
9:55 PM 56.1 °F - 27.1 °F 33% 29.70 in 10.0 mi SSW 23.0 mph 26.5 mph N/A   Clear
10:15 PM 55.8 °F - 27.1 °F 33% 29.69 in 10.0 mi SSW 20.7 mph 27.6 mph N/A   Clear
10:35 PM 55.8 °F - 26.8 °F 33% 29.69 in 10.0 mi SSW 15.0 mph - N/A   Clear
10:55 PM 55.4 °F - 26.6 °F 33% 29.68 in 10.0 mi SSW 17.3 mph 25.3 mph N/A   Clear
11:15 PM 55.4 °F - 26.8 °F 33% 29.67 in 10.0 mi SSW 15.0 mph 20.7 mph N/A   Clear
11:35 PM 54.9 °F - 27.3 °F 35% 29.67 in 10.0 mi SSW 16.1 mph 21.9 mph N/A   Clear
11:55 PM 55.4 °F - 27.5 °F 34% 29.66 in 10.0 mi SSW 17.3 mph 25.3 mph N/A   Clear